createdAt,value
2022-10-05T00:00:40.000Z,23.1
2022-10-05T00:01:50.000Z,23.1
2022-10-05T00:02:59.000Z,23.1
2022-10-05T00:04:08.000Z,23.1
2022-10-05T00:05:19.000Z,23.1
2022-10-05T00:06:29.000Z,23.1
2022-10-05T00:07:39.000Z,23.1
2022-10-05T00:08:49.000Z,23.1
2022-10-05T00:09:59.000Z,23.1
2022-10-05T00:11:09.000Z,23
2022-10-05T00:12:19.000Z,23.1
2022-10-05T00:13:29.000Z,23
2022-10-05T00:14:39.000Z,23.1
2022-10-05T00:15:50.000Z,23.1
2022-10-05T00:17:00.000Z,23
2022-10-05T00:18:10.000Z,23
2022-10-05T00:19:19.000Z,23
2022-10-05T00:20:29.000Z,23
2022-10-05T00:21:39.000Z,23
2022-10-05T00:22:49.000Z,23
2022-10-05T00:23:59.000Z,23
2022-10-05T00:25:10.000Z,23
2022-10-05T00:26:20.000Z,23
2022-10-05T00:27:30.000Z,23
2022-10-05T00:28:39.000Z,23
2022-10-05T00:29:48.000Z,23
2022-10-05T00:30:58.000Z,23
2022-10-05T00:32:08.000Z,23
2022-10-05T00:33:18.000Z,23
2022-10-05T00:34:28.000Z,23
2022-10-05T00:35:39.000Z,23
2022-10-05T00:36:49.000Z,23
2022-10-05T00:37:59.000Z,23
2022-10-05T00:39:09.000Z,23
2022-10-05T00:40:19.000Z,23
2022-10-05T00:41:29.000Z,23
2022-10-05T00:42:39.000Z,23
2022-10-05T00:43:49.000Z,23
2022-10-05T00:44:59.000Z,23
2022-10-05T00:46:09.000Z,23
2022-10-05T00:47:19.000Z,23
2022-10-05T00:48:29.000Z,23
2022-10-05T00:49:39.000Z,23
2022-10-05T00:50:49.000Z,23
2022-10-05T00:51:59.000Z,23
2022-10-05T00:53:08.000Z,23
2022-10-05T00:54:18.000Z,23
2022-10-05T00:55:27.000Z,23
2022-10-05T00:56:36.000Z,23
2022-10-05T00:57:46.000Z,23
2022-10-05T00:58:56.000Z,23
2022-10-05T01:00:06.000Z,23
2022-10-05T01:01:16.000Z,23
2022-10-05T01:02:26.000Z,23
2022-10-05T01:03:37.000Z,23
2022-10-05T01:04:47.000Z,23
2022-10-05T01:05:57.000Z,23
2022-10-05T01:07:07.000Z,23
2022-10-05T01:08:17.000Z,23
2022-10-05T01:09:27.000Z,22.9
2022-10-05T01:10:37.000Z,22.9
2022-10-05T01:11:46.000Z,22.9
2022-10-05T01:12:56.000Z,22.9
2022-10-05T01:14:07.000Z,22.9
2022-10-05T01:15:17.000Z,22.9
2022-10-05T01:16:27.000Z,22.9
2022-10-05T01:17:37.000Z,22.9
2022-10-05T01:18:47.000Z,22.9
2022-10-05T01:19:56.000Z,22.9
2022-10-05T01:21:05.000Z,22.9
2022-10-05T01:22:15.000Z,22.9
2022-10-05T01:23:26.000Z,22.9
2022-10-05T01:24:35.000Z,22.9
2022-10-05T01:25:44.000Z,22.9
2022-10-05T01:26:54.000Z,22.9
2022-10-05T01:28:04.000Z,22.9
2022-10-05T01:29:14.000Z,22.9
2022-10-05T01:30:24.000Z,22.9
2022-10-05T01:31:34.938Z,22.9
2022-10-05T01:32:45.000Z,22.9
2022-10-05T01:33:55.000Z,22.9
2022-10-05T01:35:05.000Z,22.9
2022-10-05T01:36:15.000Z,22.9
2022-10-05T01:37:25.000Z,22.9
2022-10-05T01:38:35.000Z,22.9
2022-10-05T01:39:45.000Z,22.9
2022-10-05T01:40:55.000Z,22.9
2022-10-05T01:42:04.000Z,22.9
2022-10-05T01:43:15.000Z,22.9
2022-10-05T01:44:25.000Z,22.9
2022-10-05T01:45:35.000Z,22.9
2022-10-05T01:46:45.000Z,22.9
2022-10-05T01:47:55.000Z,22.9
2022-10-05T01:50:14.000Z,22.9
2022-10-05T01:51:23.000Z,22.9
2022-10-05T01:52:33.000Z,22.9
2022-10-05T01:53:43.000Z,22.9
2022-10-05T01:54:52.000Z,22.9
2022-10-05T01:56:01.000Z,22.9
2022-10-05T01:57:11.000Z,22.9
2022-10-05T01:58:21.000Z,22.9
2022-10-05T01:59:31.000Z,22.9
2022-10-05T02:00:41.000Z,22.9
2022-10-05T02:01:52.000Z,22.9
2022-10-05T02:03:02.000Z,22.9
2022-10-05T02:04:12.000Z,22.9
2022-10-05T02:05:22.000Z,22.9
2022-10-05T02:06:32.000Z,22.9
2022-10-05T02:07:42.000Z,22.9
2022-10-05T02:08:52.000Z,22.9
2022-10-05T02:10:02.000Z,22.9
2022-10-05T02:11:13.000Z,22.9
2022-10-05T02:12:22.000Z,22.9
2022-10-05T02:13:32.000Z,22.9
2022-10-05T02:14:42.000Z,22.9
2022-10-05T02:15:52.000Z,22.9
2022-10-05T02:17:02.000Z,22.9
2022-10-05T02:18:12.000Z,22.9
2022-10-05T02:19:21.000Z,22.9
2022-10-05T02:20:30.000Z,22.8
2022-10-05T02:21:41.000Z,22.8
2022-10-05T02:24:00.366Z,22.8
2022-10-05T02:25:09.000Z,22.8
2022-10-05T02:26:18.000Z,22.8
2022-10-05T02:27:28.000Z,22.8
2022-10-05T02:28:38.000Z,22.8
2022-10-05T02:29:48.000Z,22.8
2022-10-05T02:30:59.000Z,22.8
2022-10-05T02:32:09.000Z,22.8
2022-10-05T02:33:19.000Z,22.8
2022-10-05T02:34:29.000Z,22.8
2022-10-05T02:35:39.000Z,22.8
2022-10-05T02:36:49.000Z,22.8
2022-10-05T02:37:59.000Z,22.8
2022-10-05T02:39:09.000Z,22.8
2022-10-05T02:40:20.000Z,22.8
2022-10-05T02:41:29.000Z,22.8
2022-10-05T02:42:39.000Z,22.8
2022-10-05T02:43:49.000Z,22.8
2022-10-05T02:44:59.000Z,22.8
2022-10-05T02:46:09.000Z,22.8
2022-10-05T02:47:19.000Z,22.8
2022-10-05T02:48:29.000Z,22.8
2022-10-05T02:49:39.000Z,22.8
2022-10-05T02:50:48.000Z,22.8
2022-10-05T02:51:57.000Z,22.8
2022-10-05T02:54:16.000Z,22.8
2022-10-05T02:55:26.000Z,22.8
2022-10-05T02:56:36.000Z,22.8
2022-10-05T02:57:46.000Z,22.8
2022-10-05T02:58:56.000Z,22.8
2022-10-05T03:00:07.000Z,22.8
2022-10-05T03:01:17.000Z,22.8
2022-10-05T03:02:27.000Z,22.8
2022-10-05T03:03:37.000Z,22.8
2022-10-05T03:04:47.000Z,22.8
2022-10-05T03:05:57.000Z,22.8
2022-10-05T03:07:07.000Z,22.8
2022-10-05T03:08:16.000Z,22.8
2022-10-05T03:09:27.000Z,22.8
2022-10-05T03:10:37.000Z,22.8
2022-10-05T03:11:47.000Z,22.8
2022-10-05T03:12:57.000Z,22.8
2022-10-05T03:14:07.000Z,22.8
2022-10-05T03:15:17.000Z,22.8
2022-10-05T03:16:27.000Z,22.8
2022-10-05T03:17:36.000Z,22.8
2022-10-05T03:18:46.000Z,22.8
2022-10-05T03:19:56.000Z,22.8
2022-10-05T03:21:05.000Z,22.7
2022-10-05T03:22:14.000Z,22.8
2022-10-05T03:23:24.000Z,22.8
2022-10-05T03:24:34.000Z,22.8
2022-10-05T03:25:44.000Z,22.7
2022-10-05T03:26:54.000Z,22.7
2022-10-05T03:28:04.000Z,22.7
2022-10-05T03:29:15.000Z,22.7
2022-10-05T03:31:35.000Z,22.7
2022-10-05T03:32:45.000Z,22.7
2022-10-05T03:33:55.000Z,22.7
2022-10-05T03:35:05.000Z,22.8
2022-10-05T03:36:15.000Z,22.7
2022-10-05T03:37:24.000Z,22.7
2022-10-05T03:38:35.000Z,22.7
2022-10-05T03:39:45.000Z,22.7
2022-10-05T03:40:55.000Z,22.7
2022-10-05T03:42:05.000Z,22.7
2022-10-05T03:43:15.000Z,22.7
2022-10-05T03:44:25.000Z,22.7
2022-10-05T03:45:35.000Z,22.7
2022-10-05T03:46:44.000Z,22.7
2022-10-05T03:47:54.000Z,22.7
2022-10-05T03:49:03.000Z,22.7
2022-10-05T03:50:12.000Z,22.7
2022-10-05T03:51:22.000Z,22.7
2022-10-05T03:52:32.000Z,22.7
2022-10-05T03:53:42.000Z,22.7
2022-10-05T03:54:52.000Z,22.7
2022-10-05T03:56:02.000Z,22.7
2022-10-05T03:57:12.000Z,22.7
2022-10-05T03:58:23.000Z,22.7
2022-10-05T03:59:33.000Z,22.7
2022-10-05T04:00:43.000Z,22.7
2022-10-05T04:01:53.000Z,22.7
2022-10-05T04:03:03.000Z,22.7
2022-10-05T04:04:13.000Z,22.7
2022-10-05T04:05:22.000Z,22.7
2022-10-05T04:06:32.000Z,22.7
2022-10-05T04:07:43.000Z,22.7
2022-10-05T04:08:53.000Z,22.7
2022-10-05T04:10:03.000Z,22.7
2022-10-05T04:11:13.000Z,22.7
2022-10-05T04:12:23.000Z,22.7
2022-10-05T04:13:32.000Z,22.7
2022-10-05T04:14:41.000Z,22.7
2022-10-05T04:15:50.000Z,22.7
2022-10-05T04:17:01.000Z,22.7
2022-10-05T04:18:10.000Z,22.7
2022-10-05T04:19:20.000Z,22.7
2022-10-05T04:20:30.000Z,22.7
2022-10-05T04:21:40.000Z,22.6
2022-10-05T04:22:49.000Z,22.7
2022-10-05T04:23:59.000Z,22.7
2022-10-05T04:25:09.000Z,22.7
2022-10-05T04:26:20.000Z,22.7
2022-10-05T04:27:30.000Z,22.7
2022-10-05T04:28:40.000Z,22.7
2022-10-05T04:29:50.000Z,22.7
2022-10-05T04:31:00.000Z,22.7
2022-10-05T04:32:10.000Z,22.7
2022-10-05T04:33:20.000Z,22.6
2022-10-05T04:34:30.000Z,22.7
2022-10-05T04:35:40.000Z,22.6
2022-10-05T04:36:51.000Z,22.6
2022-10-05T04:38:00.000Z,22.6
2022-10-05T04:39:10.000Z,22.6
2022-10-05T04:40:19.000Z,22.6
2022-10-05T04:41:28.000Z,22.7
2022-10-05T04:42:37.000Z,22.6
2022-10-05T04:43:46.000Z,22.7
2022-10-05T04:44:56.000Z,22.6
2022-10-05T04:46:07.000Z,22.6
2022-10-05T04:47:17.000Z,22.6
2022-10-05T04:48:27.000Z,22.6
2022-10-05T04:49:37.000Z,22.6
2022-10-05T04:50:47.000Z,22.6
2022-10-05T04:51:57.000Z,22.6
2022-10-05T04:53:07.000Z,22.6
2022-10-05T04:54:17.000Z,22.6
2022-10-05T04:56:38.000Z,22.6
2022-10-05T04:57:48.000Z,22.6
2022-10-05T04:58:57.000Z,22.6
2022-10-05T05:00:07.000Z,22.6
2022-10-05T05:01:17.000Z,22.6
2022-10-05T05:02:27.000Z,22.6
2022-10-05T05:03:37.000Z,22.6
2022-10-05T05:04:47.000Z,22.6
2022-10-05T05:05:58.000Z,22.6
2022-10-05T05:07:08.000Z,22.6
2022-10-05T05:08:17.000Z,22.6
2022-10-05T05:09:26.000Z,22.6
2022-10-05T05:10:35.000Z,22.6
2022-10-05T05:11:44.000Z,22.6
2022-10-05T05:12:54.000Z,22.6
2022-10-05T05:14:04.000Z,22.6
2022-10-05T05:15:15.000Z,22.6
2022-10-05T05:16:25.000Z,22.6
2022-10-05T05:17:35.000Z,22.6
2022-10-05T05:18:45.000Z,22.6
2022-10-05T05:19:55.000Z,22.6
2022-10-05T05:21:05.000Z,22.6
2022-10-05T05:22:15.000Z,22.6
2022-10-05T05:23:25.000Z,22.6
2022-10-05T05:24:36.000Z,22.6
2022-10-05T05:25:46.000Z,22.6
2022-10-05T05:26:55.000Z,22.6
2022-10-05T05:28:05.000Z,22.7
2022-10-05T05:29:15.000Z,22.7
2022-10-05T05:30:25.000Z,22.7
2022-10-05T05:31:35.000Z,22.7
2022-10-05T05:32:45.000Z,22.7
2022-10-05T05:33:55.000Z,22.7
2022-10-05T05:35:05.000Z,22.7
2022-10-05T05:36:14.000Z,22.8
2022-10-05T05:37:24.000Z,22.8
2022-10-05T05:38:34.000Z,22.8
2022-10-05T05:39:43.000Z,22.8
2022-10-05T05:40:52.000Z,22.8
2022-10-05T05:42:02.000Z,22.8
2022-10-05T05:43:12.000Z,22.8
2022-10-05T05:44:23.000Z,22.8
2022-10-05T05:45:33.000Z,22.8
2022-10-05T05:46:43.000Z,22.8
2022-10-05T05:47:53.000Z,22.9
2022-10-05T05:49:03.000Z,22.9
2022-10-05T05:50:13.000Z,22.9
2022-10-05T05:51:23.000Z,22.9
2022-10-05T05:52:33.000Z,22.9
2022-10-05T05:53:44.000Z,22.9
2022-10-05T05:54:54.000Z,22.9
2022-10-05T05:56:03.000Z,22.9
2022-10-05T05:57:13.000Z,22.9
2022-10-05T05:58:23.000Z,22.9
2022-10-05T05:59:33.000Z,22.9
2022-10-05T06:00:43.000Z,23
2022-10-05T06:01:53.000Z,23
2022-10-05T06:03:03.000Z,23
2022-10-05T06:04:13.000Z,23
2022-10-05T06:05:22.000Z,23
2022-10-05T06:06:32.000Z,23
2022-10-05T06:07:42.000Z,23
2022-10-05T06:08:52.000Z,23
2022-10-05T06:10:02.000Z,23
2022-10-05T06:11:12.000Z,23
2022-10-05T06:12:22.000Z,23
2022-10-05T06:13:33.000Z,23
2022-10-05T06:14:43.000Z,23
2022-10-05T06:15:53.000Z,23
2022-10-05T06:17:03.000Z,23
2022-10-05T06:18:13.000Z,23
2022-10-05T06:19:23.000Z,23
2022-10-05T06:21:42.000Z,23
2022-10-05T06:22:53.000Z,23
2022-10-05T06:24:03.000Z,23
2022-10-05T06:25:13.000Z,23
2022-10-05T06:26:23.000Z,23
2022-10-05T06:27:33.000Z,23
2022-10-05T06:28:43.000Z,23
2022-10-05T06:29:52.000Z,23
2022-10-05T06:31:01.000Z,23
2022-10-05T06:32:11.000Z,23
2022-10-05T06:33:20.000Z,23
2022-10-05T06:34:29.000Z,23
2022-10-05T06:35:38.000Z,23
2022-10-05T06:36:48.000Z,23
2022-10-05T06:37:58.000Z,23
2022-10-05T06:39:07.000Z,22.9
2022-10-05T06:40:16.000Z,22.9
2022-10-05T06:41:27.000Z,22.9
2022-10-05T06:42:37.000Z,22.9
2022-10-05T06:43:47.000Z,22.9
2022-10-05T06:44:57.000Z,22.9
2022-10-05T06:46:07.000Z,22.9
2022-10-05T06:47:17.000Z,22.9
2022-10-05T06:48:27.000Z,22.9
2022-10-05T06:49:37.000Z,22.9
2022-10-05T06:50:47.000Z,22.9
2022-10-05T06:51:58.000Z,22.9
2022-10-05T06:53:08.000Z,22.9
2022-10-05T06:54:18.000Z,22.9
2022-10-05T06:55:27.000Z,22.9
2022-10-05T06:56:37.000Z,22.9
2022-10-05T06:57:47.000Z,22.9
2022-10-05T06:58:57.000Z,22.9
2022-10-05T07:00:07.000Z,22.9
2022-10-05T07:01:18.000Z,22.9
2022-10-05T07:02:28.000Z,22.9
2022-10-05T07:03:37.000Z,22.9
2022-10-05T07:04:46.000Z,22.9
2022-10-05T07:05:56.000Z,22.9
2022-10-05T07:07:05.000Z,22.9
2022-10-05T07:08:14.000Z,23
2022-10-05T07:09:24.000Z,23
2022-10-05T07:10:35.000Z,23
2022-10-05T07:11:45.000Z,23
2022-10-05T07:12:55.000Z,23
2022-10-05T07:14:05.000Z,23
2022-10-05T07:15:15.000Z,23
2022-10-05T07:16:25.000Z,23
2022-10-05T07:17:35.000Z,23
2022-10-05T07:18:45.000Z,23
2022-10-05T07:19:55.000Z,23
2022-10-05T07:21:06.000Z,23
2022-10-05T07:22:16.000Z,23
2022-10-05T07:23:25.000Z,23
2022-10-05T07:24:35.000Z,23
2022-10-05T07:25:45.000Z,23
2022-10-05T07:26:55.000Z,23
2022-10-05T07:28:05.000Z,23
2022-10-05T07:29:15.000Z,23
2022-10-05T07:30:26.000Z,23
2022-10-05T07:31:35.000Z,23
2022-10-05T07:32:44.000Z,23
2022-10-05T07:33:53.000Z,23
2022-10-05T07:35:02.000Z,23
2022-10-05T07:36:12.000Z,23
2022-10-05T07:37:22.000Z,23
2022-10-05T07:38:32.000Z,23
2022-10-05T07:39:43.000Z,23
2022-10-05T07:40:53.000Z,23
2022-10-05T07:42:03.000Z,23
2022-10-05T07:43:13.000Z,23
2022-10-05T07:44:23.000Z,23
2022-10-05T07:45:33.000Z,23
2022-10-05T07:46:43.000Z,23
2022-10-05T07:47:53.000Z,23.1
2022-10-05T07:49:03.000Z,23
2022-10-05T07:50:13.000Z,23
2022-10-05T07:51:23.000Z,23.1
2022-10-05T07:52:33.000Z,23.1
2022-10-05T07:53:43.000Z,23.1
2022-10-05T07:54:53.000Z,23.1
2022-10-05T07:56:03.000Z,23.1
2022-10-05T07:57:13.000Z,23.1
2022-10-05T07:58:22.000Z,23.1
2022-10-05T07:59:32.000Z,23.1
2022-10-05T08:00:41.000Z,23.1
2022-10-05T08:01:51.000Z,23.1
2022-10-05T08:03:00.000Z,23.1
2022-10-05T08:04:10.000Z,23.1
2022-10-05T08:05:20.000Z,23.1
2022-10-05T08:06:30.000Z,23.1
2022-10-05T08:07:40.000Z,23.1
2022-10-05T08:08:51.000Z,23.1
2022-10-05T08:10:01.000Z,23.1
2022-10-05T08:11:11.000Z,23.1
2022-10-05T08:12:21.000Z,23.1
2022-10-05T08:13:31.000Z,23.1
2022-10-05T08:14:41.000Z,23.1
2022-10-05T08:15:51.000Z,23.1
2022-10-05T08:17:00.000Z,23.1
2022-10-05T08:18:10.000Z,23.1
2022-10-05T08:19:21.000Z,23.1
2022-10-05T08:20:31.000Z,23.1
2022-10-05T08:21:41.000Z,23.1
2022-10-05T08:22:51.000Z,23.1
2022-10-05T08:24:01.000Z,23.1
2022-10-05T08:25:10.000Z,23.1
2022-10-05T08:26:19.000Z,23.1
2022-10-05T08:27:28.000Z,23.1
2022-10-05T08:28:38.000Z,23.1
2022-10-05T08:29:48.000Z,23.1
2022-10-05T08:30:58.000Z,23.1
2022-10-05T08:32:08.000Z,23.1
2022-10-05T08:33:18.000Z,23.1
2022-10-05T08:34:28.000Z,23.1
2022-10-05T08:35:38.000Z,23.1
2022-10-05T08:36:48.000Z,23.1
2022-10-05T08:37:59.000Z,23.1
2022-10-05T08:39:09.000Z,23.1
2022-10-05T08:40:19.000Z,23.1
2022-10-05T08:41:29.000Z,23.1
2022-10-05T08:42:39.000Z,23.1
2022-10-05T08:43:48.000Z,23.1
2022-10-05T08:44:58.000Z,23.2
2022-10-05T08:46:08.000Z,23.1
2022-10-05T08:47:18.000Z,23.2
2022-10-05T08:48:29.000Z,23.2
2022-10-05T08:49:39.000Z,23.1
2022-10-05T08:50:49.000Z,23.2
2022-10-05T08:51:58.000Z,23.2
2022-10-05T08:53:07.000Z,23.2
2022-10-05T08:55:26.000Z,23.2
2022-10-05T08:56:36.000Z,23.2
2022-10-05T08:57:45.000Z,23.2
2022-10-05T08:58:55.000Z,23.2
2022-10-05T09:00:05.000Z,23.2
2022-10-05T09:01:15.000Z,23.2
2022-10-05T09:02:25.000Z,23.2
2022-10-05T09:03:35.000Z,23.2
2022-10-05T09:04:45.000Z,23.2
2022-10-05T09:05:55.000Z,23.2
2022-10-05T09:07:06.000Z,23.2
2022-10-05T09:09:26.000Z,23.3
2022-10-05T09:10:36.000Z,23.3
2022-10-05T09:11:46.000Z,23.3
2022-10-05T09:12:55.000Z,23.3
2022-10-05T09:14:05.000Z,23.3
2022-10-05T09:15:15.000Z,23.3
2022-10-05T09:16:26.000Z,23.3
2022-10-05T09:17:36.000Z,23.3
2022-10-05T09:18:46.000Z,23.3
2022-10-05T09:19:56.000Z,23.3
2022-10-05T09:21:06.000Z,23.3
2022-10-05T09:22:15.000Z,23.3
2022-10-05T09:23:24.000Z,23.3
2022-10-05T09:24:33.000Z,23.4
2022-10-05T09:25:43.000Z,23.4
2022-10-05T09:26:53.000Z,23.4
2022-10-05T09:28:03.000Z,23.4
2022-10-05T09:29:13.000Z,23.4
2022-10-05T09:30:23.000Z,23.4
2022-10-05T09:31:33.000Z,23.4
2022-10-05T09:32:43.000Z,23.4
2022-10-05T09:33:53.000Z,23.4
2022-10-05T09:35:03.000Z,23.4
2022-10-05T09:36:14.000Z,23.5
2022-10-05T09:37:24.000Z,23.5
2022-10-05T09:38:34.000Z,23.5
2022-10-05T09:39:44.000Z,23.5
2022-10-05T09:40:53.000Z,23.5
2022-10-05T09:42:03.000Z,23.5
2022-10-05T09:43:13.000Z,23.5
2022-10-05T09:44:23.000Z,23.5
2022-10-05T09:45:34.000Z,23.5
2022-10-05T09:46:44.000Z,23.6
2022-10-05T09:47:54.000Z,23.6
2022-10-05T09:49:03.000Z,23.6
2022-10-05T09:50:12.000Z,23.6
2022-10-05T09:51:21.000Z,23.6
2022-10-05T09:52:30.000Z,23.6
2022-10-05T09:53:40.000Z,23.6
2022-10-05T09:54:51.000Z,23.6
2022-10-05T09:56:01.000Z,23.6
2022-10-05T09:57:11.000Z,23.6
2022-10-05T09:58:21.000Z,23.6
2022-10-05T09:59:31.000Z,23.6
2022-10-05T10:00:41.000Z,23.6
2022-10-05T10:01:51.000Z,23.6
2022-10-05T10:03:01.000Z,23.7
2022-10-05T10:04:11.000Z,23.7
2022-10-05T10:05:22.000Z,23.7
2022-10-05T10:06:32.000Z,23.7
2022-10-05T10:07:41.000Z,23.7
2022-10-05T10:08:51.000Z,23.7
2022-10-05T10:10:01.000Z,23.7
2022-10-05T10:11:11.000Z,23.7
2022-10-05T10:12:21.000Z,23.7
2022-10-05T10:13:31.000Z,23.7
2022-10-05T10:14:42.000Z,23.7
2022-10-05T10:15:51.000Z,23.7
2022-10-05T10:17:00.000Z,23.8
2022-10-05T10:18:10.000Z,23.8
2022-10-05T10:19:19.000Z,23.8
2022-10-05T10:20:28.000Z,23.8
2022-10-05T10:21:38.000Z,23.8
2022-10-05T10:22:48.000Z,23.9
2022-10-05T10:23:59.000Z,24.1
2022-10-05T10:25:09.000Z,24.3
2022-10-05T10:26:19.000Z,24.6
2022-10-05T10:27:29.000Z,24.9
2022-10-05T10:28:39.000Z,25.3
2022-10-05T10:29:49.000Z,25.7
2022-10-05T10:30:59.000Z,26
2022-10-05T10:32:09.000Z,26.3
2022-10-05T10:33:19.000Z,26.5
2022-10-05T10:34:30.000Z,26.8
2022-10-05T10:35:39.000Z,26.9
2022-10-05T10:36:49.000Z,26.7
2022-10-05T10:37:59.000Z,26.8
2022-10-05T10:39:09.000Z,27.1
2022-10-05T10:40:19.000Z,27.3
2022-10-05T10:41:29.000Z,27.2
2022-10-05T10:42:39.000Z,27.4
2022-10-05T10:43:49.000Z,27.6
2022-10-05T10:44:58.000Z,27.8
2022-10-05T10:46:07.000Z,27.9
2022-10-05T10:47:16.000Z,27.8
2022-10-05T10:48:26.000Z,27.9
2022-10-05T10:49:36.000Z,28.1
2022-10-05T10:50:46.000Z,28.1
2022-10-05T10:51:56.000Z,28.2
2022-10-05T10:53:07.000Z,28.2
2022-10-05T10:54:17.000Z,28.1
2022-10-05T10:55:27.000Z,27.9
2022-10-05T10:56:37.000Z,27.8
2022-10-05T10:57:47.000Z,27.8
2022-10-05T10:58:57.000Z,27.9
2022-10-05T11:00:07.000Z,28
2022-10-05T11:01:17.000Z,27.7
2022-10-05T11:02:26.000Z,27.4
2022-10-05T11:03:37.000Z,27.3
2022-10-05T11:04:47.000Z,26.9
2022-10-05T11:05:57.000Z,26.8
2022-10-05T11:07:07.000Z,26.7
2022-10-05T11:08:17.000Z,26.6
2022-10-05T11:09:27.000Z,26.4
2022-10-05T11:10:36.000Z,26.3
2022-10-05T11:11:45.000Z,26.1
2022-10-05T11:12:56.000Z,25.9
2022-10-05T11:14:05.000Z,25.8
2022-10-05T11:15:14.000Z,25.7
2022-10-05T11:16:24.000Z,25.6
2022-10-05T11:17:34.000Z,25.5
2022-10-05T11:18:44.000Z,25.5
2022-10-05T11:19:54.000Z,25.4
2022-10-05T11:21:04.000Z,25.4
2022-10-05T11:22:15.000Z,25.3
2022-10-05T11:23:25.000Z,25.3
2022-10-05T11:24:35.000Z,25.3
2022-10-05T11:25:45.000Z,25.2
2022-10-05T11:26:55.000Z,25.2
2022-10-05T11:28:05.000Z,25.1
2022-10-05T11:29:15.000Z,25.1
2022-10-05T11:30:24.000Z,25
2022-10-05T11:31:34.000Z,25
2022-10-05T11:32:45.000Z,25
2022-10-05T11:33:55.000Z,25
2022-10-05T11:35:05.000Z,24.9
2022-10-05T11:36:15.000Z,24.9
2022-10-05T11:37:25.000Z,24.9
2022-10-05T11:38:34.000Z,24.8
2022-10-05T11:39:43.000Z,24.8
2022-10-05T11:40:53.000Z,24.8
2022-10-05T11:42:04.000Z,24.7
2022-10-05T11:43:14.000Z,24.7
2022-10-05T11:44:24.000Z,24.6
2022-10-05T11:45:34.000Z,24.6
2022-10-05T11:46:44.000Z,24.6
2022-10-05T11:47:54.000Z,24.6
2022-10-05T11:49:04.000Z,24.6
2022-10-05T11:50:14.000Z,24.6
2022-10-05T11:51:24.000Z,24.5
2022-10-05T11:52:35.000Z,24.5
2022-10-05T11:53:45.000Z,24.5
2022-10-05T11:54:54.000Z,24.5
2022-10-05T11:56:04.000Z,24.5
2022-10-05T11:57:14.000Z,24.5
2022-10-05T11:58:24.000Z,24.5
2022-10-05T11:59:34.000Z,24.5
2022-10-05T12:00:44.000Z,24.5
2022-10-05T12:01:55.000Z,24.5
2022-10-05T12:03:04.000Z,24.5
2022-10-05T12:04:13.000Z,24.5
2022-10-05T12:05:22.000Z,24.4
2022-10-05T12:06:31.000Z,24.4
2022-10-05T12:07:40.000Z,24.4
2022-10-05T12:08:49.000Z,24.4
2022-10-05T12:09:59.000Z,24.4
2022-10-05T12:11:09.000Z,24.4
2022-10-05T12:12:19.000Z,24.4
2022-10-05T12:13:29.000Z,24.4
2022-10-05T12:14:39.000Z,24.3
2022-10-05T12:15:49.000Z,24.4
2022-10-05T12:16:59.000Z,24.3
2022-10-05T12:19:19.000Z,24.3
2022-10-05T12:20:30.000Z,24.3
2022-10-05T12:21:40.000Z,24.3
2022-10-05T12:22:50.000Z,24.3
2022-10-05T12:24:00.000Z,24.3
2022-10-05T12:25:10.000Z,24.2
2022-10-05T12:26:19.000Z,24.3
2022-10-05T12:27:29.000Z,24.2
2022-10-05T12:28:39.000Z,24.3
2022-10-05T12:29:49.000Z,24.2
2022-10-05T12:31:00.000Z,24.2
2022-10-05T12:32:10.000Z,24.2
2022-10-05T12:33:19.000Z,24.2
2022-10-05T12:34:28.000Z,24.2
2022-10-05T12:35:37.000Z,24.2
2022-10-05T12:36:46.000Z,24.2
2022-10-05T12:37:56.000Z,24.2
2022-10-05T12:39:07.000Z,24.2
2022-10-05T12:40:17.000Z,24.2
2022-10-05T12:41:27.000Z,24.2
2022-10-05T12:42:37.000Z,24.1
2022-10-05T12:43:47.000Z,24.1
2022-10-05T12:44:57.000Z,24.1
2022-10-05T12:46:07.000Z,24.1
2022-10-05T12:47:17.000Z,24.1
2022-10-05T12:48:27.000Z,24.1
2022-10-05T12:49:38.000Z,24.1
2022-10-05T12:50:48.000Z,24.1
2022-10-05T12:51:57.000Z,24.1
2022-10-05T12:53:07.000Z,24.1
2022-10-05T12:54:17.000Z,24.1
2022-10-05T12:55:27.000Z,24.1
2022-10-05T12:56:37.000Z,24.1
2022-10-05T12:57:47.000Z,24.1
2022-10-05T12:58:57.000Z,24.1
2022-10-05T13:00:08.000Z,24.1
2022-10-05T13:01:17.000Z,24.1
2022-10-05T13:02:26.000Z,24
2022-10-05T13:03:36.000Z,24.1
2022-10-05T13:04:46.000Z,24.1
2022-10-05T13:05:56.000Z,24.1
2022-10-05T13:07:06.000Z,24.1
2022-10-05T13:08:16.000Z,24
2022-10-05T13:09:27.000Z,24
2022-10-05T13:10:37.000Z,24
2022-10-05T13:11:47.000Z,24
2022-10-05T13:12:57.000Z,24
2022-10-05T13:14:07.000Z,24.1
2022-10-05T13:15:17.000Z,24
2022-10-05T13:16:27.000Z,24
2022-10-05T13:17:36.000Z,24
2022-10-05T13:18:47.000Z,24
2022-10-05T13:19:57.000Z,24
2022-10-05T13:21:07.000Z,24
2022-10-05T13:22:17.000Z,24
2022-10-05T13:23:27.000Z,24
2022-10-05T13:24:37.000Z,24
2022-10-05T13:25:46.000Z,24
2022-10-05T13:26:55.000Z,24
2022-10-05T13:28:05.000Z,24
2022-10-05T13:29:16.000Z,24
2022-10-05T13:30:26.000Z,24
2022-10-05T13:31:36.000Z,24
2022-10-05T13:32:46.000Z,24
2022-10-05T13:33:56.000Z,24
2022-10-05T13:35:06.000Z,24
2022-10-05T13:36:16.000Z,24
2022-10-05T13:37:26.000Z,24
2022-10-05T13:38:37.000Z,24
2022-10-05T13:39:47.000Z,23.9
2022-10-05T13:40:57.000Z,23.9
2022-10-05T13:42:06.000Z,23.9
2022-10-05T13:43:16.000Z,23.9
2022-10-05T13:44:26.000Z,23.9
2022-10-05T13:45:36.000Z,24
2022-10-05T13:46:46.000Z,24
2022-10-05T13:47:56.000Z,23.9
2022-10-05T13:49:07.000Z,23.9
2022-10-05T13:50:16.000Z,23.9
2022-10-05T13:51:25.000Z,23.9
2022-10-05T13:52:34.000Z,23.9
2022-10-05T13:53:43.000Z,23.9
2022-10-05T13:54:52.000Z,23.9
2022-10-05T13:56:01.000Z,23.9
2022-10-05T13:57:12.000Z,24
2022-10-05T13:58:21.000Z,24
2022-10-05T13:59:30.000Z,24
2022-10-05T14:00:40.000Z,24
2022-10-05T14:01:50.000Z,24.1
2022-10-05T14:03:00.000Z,24.1
2022-10-05T14:04:10.000Z,24.1
2022-10-05T14:05:20.000Z,24.1
2022-10-05T14:06:31.000Z,24.2
2022-10-05T14:07:41.000Z,24.2
2022-10-05T14:08:51.000Z,24.1
2022-10-05T14:10:01.000Z,24.1
2022-10-05T14:11:11.000Z,24.2
2022-10-05T14:12:21.000Z,24.2
2022-10-05T14:13:31.000Z,24.1
2022-10-05T14:14:40.000Z,24.2
2022-10-05T14:15:50.000Z,24.2
2022-10-05T14:17:01.000Z,24.2
2022-10-05T14:18:11.000Z,24.2
2022-10-05T14:19:21.000Z,24.2
2022-10-05T14:20:31.000Z,24.2
2022-10-05T14:21:41.000Z,24.2
2022-10-05T14:22:50.000Z,24.2
2022-10-05T14:23:59.000Z,24.2
2022-10-05T14:25:08.000Z,24.3
2022-10-05T14:26:18.000Z,24.3
2022-10-05T14:27:28.000Z,24.3
2022-10-05T14:28:38.000Z,24.3
2022-10-05T14:29:48.000Z,24.3
2022-10-05T14:30:58.000Z,24.3
2022-10-05T14:32:08.000Z,24.3
2022-10-05T14:33:18.000Z,24.3
2022-10-05T14:34:28.000Z,24.3
2022-10-05T14:35:39.000Z,24.3
2022-10-05T14:36:49.000Z,24.3
2022-10-05T14:37:59.000Z,24.3
2022-10-05T14:39:09.000Z,24.3
2022-10-05T14:40:19.000Z,24.3
2022-10-05T14:41:28.000Z,24.3
2022-10-05T14:42:38.000Z,24.3
2022-10-05T14:43:48.000Z,24.3
2022-10-05T14:44:58.000Z,24.3
2022-10-05T14:46:09.000Z,24.3
2022-10-05T14:47:19.000Z,24.3
2022-10-05T14:48:29.000Z,24.4
2022-10-05T14:49:38.000Z,24.4
2022-10-05T14:50:47.000Z,24.4
2022-10-05T14:51:57.000Z,24.4
2022-10-05T14:53:07.000Z,24.4
2022-10-05T14:54:17.000Z,24.4
2022-10-05T14:55:28.000Z,24.5
2022-10-05T14:56:38.000Z,24.5
2022-10-05T14:57:48.000Z,24.4
2022-10-05T14:58:58.000Z,24.5
2022-10-05T15:00:08.000Z,24.5
2022-10-05T15:01:18.000Z,24.4
2022-10-05T15:03:38.000Z,24.4
2022-10-05T15:04:48.000Z,24.4
2022-10-05T15:05:58.000Z,24.4
2022-10-05T15:07:08.000Z,24.4
2022-10-05T15:08:18.000Z,24.3
2022-10-05T15:09:28.000Z,24.3
2022-10-05T15:10:38.000Z,24.3
2022-10-05T15:11:48.000Z,24.3
2022-10-05T15:12:58.000Z,24.3
2022-10-05T15:14:08.000Z,24.2
2022-10-05T15:15:18.000Z,24.2
2022-10-05T15:16:27.000Z,24.2
2022-10-05T15:17:37.000Z,24.2
2022-10-05T15:18:46.000Z,24.2
2022-10-05T15:19:55.000Z,24.2
2022-10-05T15:21:05.000Z,24.2
2022-10-05T15:22:15.000Z,24.1
2022-10-05T15:23:24.000Z,24.1
2022-10-05T15:24:34.000Z,24.1
2022-10-05T15:25:44.000Z,24.1
2022-10-05T15:26:54.000Z,24.1
2022-10-05T15:28:04.000Z,24
2022-10-05T15:29:14.000Z,24
2022-10-05T15:30:24.000Z,24
2022-10-05T15:31:34.000Z,24
2022-10-05T15:32:44.000Z,24
2022-10-05T15:33:55.000Z,24
2022-10-05T15:35:05.000Z,24
2022-10-05T15:36:15.000Z,24
2022-10-05T15:37:25.000Z,24
2022-10-05T15:38:35.000Z,24
2022-10-05T15:39:44.000Z,24
2022-10-05T15:40:54.000Z,24
2022-10-05T15:42:04.000Z,24
2022-10-05T15:43:14.000Z,24
2022-10-05T15:44:25.000Z,24
2022-10-05T15:45:35.000Z,23.9
2022-10-05T15:46:45.000Z,23.9
2022-10-05T15:47:54.000Z,23.9
2022-10-05T15:49:03.000Z,23.9
2022-10-05T15:50:13.000Z,23.9
2022-10-05T15:51:22.000Z,23.9
2022-10-05T15:52:32.000Z,23.9
2022-10-05T15:53:42.000Z,23.9
2022-10-05T15:54:52.000Z,23.9